Time;durP1;ratioP1;P1;durP2;ratioP2;P2;SDS_P1;SDS_P2;PMS_P1;PMS_P2;Temp;Humidity;BMP_temperature;BMP_pressure;BME280_temperature;BME280_humidity;BME280_pressure;Samples;Min_cycle;Max_cycle;Signal;HPM_P1;HPM_P2
2022/07/09 00:02:00;;;;;;;2.37;1.02;;;25.30;99.90;;;;;;1879584;75;21624;-79
2022/07/09 00:04:31;;;;;;;4.00;1.12;;;25.30;99.90;;;;;;1877332;75;21663;-79
2022/07/09 00:07:02;;;;;;;3.10;1.25;;;25.30;99.90;;;;;;1866272;74;21050;-79
2022/07/09 00:09:33;;;;;;;4.40;1.20;;;25.30;99.90;;;;;;1884343;75;21123;-79
2022/07/09 00:12:04;;;;;;;5.53;1.37;;;25.30;99.90;;;;;;1884823;75;21194;-80
2022/07/09 00:14:35;;;;;;;2.92;1.20;;;25.40;99.90;;;;;;1886134;75;21098;-80
2022/07/09 00:17:06;;;;;;;3.37;1.35;;;25.40;99.90;;;;;;1885185;75;21106;-79
2022/07/09 00:19:37;;;;;;;4.20;1.00;;;25.40;99.90;;;;;;1885826;75;21097;-80
2022/07/09 00:22:08;;;;;;;3.98;1.42;;;25.40;99.90;;;;;;1885861;75;21203;-79
2022/07/09 00:24:39;;;;;;;2.70;1.02;;;25.40;99.90;;;;;;1883038;75;21098;-80
2022/07/09 00:27:10;;;;;;;3.25;1.05;;;25.50;99.90;;;;;;1897393;73;21160;-79
2022/07/09 00:29:41;;;;;;;2.47;1.15;;;25.50;99.90;;;;;;1918567;73;21105;-79
2022/07/09 00:32:12;;;;;;;2.87;1.20;;;25.50;99.90;;;;;;1913753;73;21066;-80
2022/07/09 00:34:42;;;;;;;2.77;1.15;;;25.50;99.90;;;;;;1917257;73;21117;-80
2022/07/09 00:37:13;;;;;;;2.60;1.10;;;25.50;99.90;;;;;;1903497;75;21225;-80
2022/07/09 00:39:45;;;;;;;3.27;1.15;;;25.50;99.90;;;;;;1865769;75;21300;-79
2022/07/09 00:42:15;;;;;;;2.90;1.30;;;25.50;99.90;;;;;;1870053;75;21749;-79
2022/07/09 00:44:46;;;;;;;2.62;1.45;;;25.50;99.90;;;;;;1917028;73;21121;-80
2022/07/09 00:47:17;;;;;;;3.45;1.10;;;25.50;99.90;;;;;;1837609;76;21195;-80
2022/07/09 00:49:48;;;;;;;1.95;1.20;;;25.50;99.90;;;;;;1873196;75;21128;-79
2022/07/09 00:52:19;;;;;;;3.45;1.50;;;25.50;99.90;;;;;;1905339;74;21237;-81
2022/07/09 00:54:51;;;;;;;3.62;1.42;;;25.50;99.90;;;;;;1859367;75;21060;-80
2022/07/09 00:57:22;;;;;;;4.47;1.40;;;25.60;99.90;;;;;;1871487;75;21164;-80
2022/07/09 00:59:54;;;;;;;3.70;1.20;;;25.60;99.90;;;;;;1859779;75;21493;-81
2022/07/09 01:02:25;;;;;;;4.30;1.30;;;25.70;99.90;;;;;;1871067;76;21227;-79
2022/07/09 01:04:56;;;;;;;4.50;1.30;;;25.70;99.90;;;;;;1913567;75;21607;-79
2022/07/09 01:07:27;;;;;;;2.95;1.80;;;25.70;99.90;;;;;;1915616;73;21238;-80
2022/07/09 01:09:58;;;;;;;3.40;1.47;;;25.70;99.90;;;;;;1877161;75;22393;-80
2022/07/09 01:12:29;;;;;;;2.37;1.40;;;25.80;99.90;;;;;;1914742;73;21081;-79
2022/07/09 01:15:01;;;;;;;4.78;1.47;;;25.80;99.90;;;;;;1913386;73;21151;-80
2022/07/09 01:17:34;;;;;;;4.22;1.60;;;25.90;99.90;;;;;;1873364;75;21084;-79
2022/07/09 01:20:06;;;;;;;4.08;1.30;;;25.90;99.90;;;;;;1879188;75;21610;-80
2022/07/09 01:22:37;;;;;;;4.67;1.40;;;26.00;99.90;;;;;;1867314;75;21170;-80
2022/07/09 01:25:09;;;;;;;5.35;1.95;;;26.00;99.90;;;;;;1901162;75;21124;-79
2022/07/09 01:27:40;;;;;;;3.22;1.40;;;26.10;99.90;;;;;;1879212;75;21205;-79
2022/07/09 01:30:12;;;;;;;3.27;1.35;;;26.20;99.90;;;;;;1936564;72;21179;-79
2022/07/09 01:32:43;;;;;;;2.58;1.27;;;26.30;99.90;;;;;;1929863;74;21160;-79
2022/07/09 01:35:14;;;;;;;2.80;1.22;;;26.30;99.90;;;;;;1940622;72;21071;-79
2022/07/09 01:37:45;;;;;;;3.83;1.47;;;26.40;99.90;;;;;;1939181;72;21129;-80
2022/07/09 01:40:15;;;;;;;4.97;1.30;;;26.40;99.90;;;;;;1944703;72;21163;-78
2022/07/09 01:42:47;;;;;;;3.40;1.25;;;26.50;99.90;;;;;;1939398;72;21178;-78
2022/07/09 01:45:18;;;;;;;2.55;1.30;;;26.50;99.90;;;;;;1941305;72;21153;-79
2022/07/09 01:47:49;;;;;;;7.40;1.52;;;26.60;99.90;;;;;;1937640;72;21168;-80
2022/07/09 01:50:21;;;;;;;2.35;1.30;;;26.60;99.90;;;;;;1914623;73;21230;-79
2022/07/09 01:52:52;;;;;;;4.53;1.27;;;26.60;99.90;;;;;;1925214;73;21081;-79
2022/07/09 01:55:23;;;;;;;6.00;1.75;;;26.60;99.90;;;;;;1920681;73;21088;-80
2022/07/09 01:57:53;;;;;;;3.98;1.40;;;26.70;99.90;;;;;;1910318;73;21120;-79
2022/07/09 02:00:27;;;;;;;3.05;1.17;;;26.70;99.90;;;;;;1923857;73;21123;-80
2022/07/09 02:02:57;;;;;;;3.02;1.40;;;26.80;99.90;;;;;;1882667;74;21115;-79
2022/07/09 02:05:29;;;;;;;2.47;1.07;;;26.80;99.90;;;;;;1886931;75;21549;-80
2022/07/09 02:08:00;;;;;;;2.77;1.27;;;26.80;99.90;;;;;;1922920;73;21162;-80
2022/07/09 02:10:30;;;;;;;5.47;1.77;;;26.90;99.90;;;;;;1916475;73;21161;-79
2022/07/09 02:13:03;;;;;;;8.98;1.92;;;26.90;99.90;;;;;;1903870;73;21487;-79
2022/07/09 02:15:34;;;;;;;3.52;1.27;;;26.90;99.90;;;;;;1905096;73;21124;-80
2022/07/09 02:18:05;;;;;;;3.52;1.25;;;27.00;99.90;;;;;;1915413;74;21162;-80
2022/07/09 02:20:37;;;;;;;5.58;1.40;;;27.10;99.90;;;;;;1930422;73;21229;-79
2022/07/09 02:23:08;;;;;;;4.62;1.05;;;27.20;99.90;;;;;;1912727;73;21867;-79
2022/07/09 02:25:39;;;;;;;4.22;1.40;;;27.30;99.90;;;;;;1932354;73;21151;-79
2022/07/09 02:28:10;;;;;;;6.70;1.37;;;27.40;99.90;;;;;;1925476;72;21099;-81
2022/07/09 02:30:42;;;;;;;2.75;1.22;;;27.50;99.90;;;;;;1892320;75;21242;-80
2022/07/09 02:33:14;;;;;;;2.25;1.30;;;27.60;99.90;;;;;;1881203;74;21583;-81
2022/07/09 02:35:44;;;;;;;2.27;1.00;;;27.80;99.90;;;;;;1917846;73;21109;-81
2022/07/09 02:38:15;;;;;;;3.55;1.57;;;27.90;99.90;;;;;;1922556;73;21635;-80
2022/07/09 02:40:46;;;;;;;6.87;1.30;;;28.10;99.90;;;;;;1903334;74;21760;-80
2022/07/09 02:43:17;;;;;;;3.42;1.17;;;28.20;99.60;;;;;;1890232;75;21989;-80
2022/07/09 02:45:51;;;;;;;2.62;0.90;;;28.30;99.20;;;;;;1929352;73;21249;-81
2022/07/09 02:48:20;;;;;;;2.25;1.20;;;28.40;98.80;;;;;;1877909;75;21579;-80
2022/07/09 02:50:51;;;;;;;3.55;1.25;;;28.40;98.30;;;;;;1905587;73;21612;-80
2022/07/09 02:53:25;;;;;;;1.75;0.85;;;28.50;98.90;;;;;;1919582;73;21176;-81
2022/07/09 02:55:59;;;;;;;4.85;1.30;;;28.70;98.60;;;;;;1906004;73;21699;-80
2022/07/09 02:58:43;;;;;;;;;;;28.90;98.50;;;;;;1907524;73;21132;-82
2022/07/09 03:01:22;;;;;;;2.37;1.00;;;29.00;97.60;;;;;;1937401;73;20246;-81
2022/07/09 03:03:53;;;;;;;2.92;1.25;;;29.20;97.70;;;;;;1949967;72;21525;-82
2022/07/09 03:06:24;;;;;;;3.75;1.00;;;29.20;97.60;;;;;;1918768;73;21088;-81
2022/07/09 03:08:55;;;;;;;2.17;0.82;;;29.20;96.10;;;;;;1897364;75;22280;-80
2022/07/09 03:11:26;;;;;;;3.62;1.10;;;29.20;95.90;;;;;;1936097;73;21151;-80
2022/07/09 03:13:57;;;;;;;4.65;1.30;;;29.20;96.70;;;;;;1905311;74;21192;-80
2022/07/09 03:16:30;;;;;;;2.05;1.00;;;29.30;96.70;;;;;;1857392;75;21126;-81
2022/07/09 03:19:03;;;;;;;3.02;1.47;;;29.40;96.30;;;;;;1854916;75;21107;-80
2022/07/09 03:21:34;;;;;;;2.27;0.93;;;29.50;95.80;;;;;;1897026;74;21616;-80
2022/07/09 03:24:08;;;;;;;4.80;1.90;;;29.50;95.60;;;;;;1939560;72;21177;-82
2022/07/09 03:26:38;;;;;;;2.92;1.27;;;29.50;95.50;;;;;;1959963;72;21113;-80
2022/07/09 03:29:09;;;;;;;4.30;1.72;;;29.60;95.20;;;;;;1915480;73;21622;-81
2022/07/09 03:31:40;;;;;;;3.85;1.32;;;29.50;95.30;;;;;;1922580;73;21633;-81
2022/07/09 03:34:11;;;;;;;3.00;0.98;;;29.50;95.50;;;;;;1919952;73;21076;-80
2022/07/09 03:36:43;;;;;;;2.52;1.00;;;29.50;94.80;;;;;;1919150;73;21104;-80
2022/07/09 03:39:14;;;;;;;2.83;1.27;;;29.50;95.00;;;;;;1915314;73;21092;-81
2022/07/09 03:41:45;;;;;;;3.72;1.40;;;29.50;95.10;;;;;;1927130;74;21277;-79
2022/07/09 03:44:17;;;;;;;6.05;2.05;;;29.60;95.50;;;;;;1915053;74;21164;-80
2022/07/09 03:46:50;;;;;;;3.62;1.52;;;29.70;94.80;;;;;;1887891;74;21151;-78
2022/07/09 03:49:21;;;;;;;5.03;1.35;;;29.80;94.30;;;;;;1853712;76;21231;-80
2022/07/09 03:51:52;;;;;;;5.10;1.65;;;29.90;94.60;;;;;;1902277;74;21213;-80
2022/07/09 03:54:25;;;;;;;5.85;1.52;;;29.90;94.20;;;;;;1874347;75;21142;-80
2022/07/09 03:56:55;;;;;;;2.92;1.20;;;30.00;94.20;;;;;;1873255;75;21140;-80
2022/07/09 03:59:26;;;;;;;2.58;1.00;;;30.10;93.80;;;;;;1941294;73;21158;-80
2022/07/09 04:01:57;;;;;;;3.62;0.90;;;30.20;93.40;;;;;;1907966;74;21067;-80
2022/07/09 04:04:28;;;;;;;2.45;0.78;;;30.30;93.10;;;;;;1871760;75;21181;-80
2022/07/09 04:06:59;;;;;;;3.72;0.90;;;30.50;92.60;;;;;;1924460;73;21645;-80
2022/07/09 04:09:30;;;;;;;2.58;1.10;;;30.60;92.10;;;;;;1914286;74;21160;-80
2022/07/09 04:12:04;;;;;;;2.30;1.20;;;30.80;91.70;;;;;;1893263;75;21117;-80
2022/07/09 04:14:36;;;;;;;2.67;1.00;;;30.80;91.80;;;;;;1878478;73;21080;-81
2022/07/09 04:17:07;;;;;;;2.40;0.80;;;30.80;91.70;;;;;;1872564;74;21151;-79
2022/07/09 04:19:39;;;;;;;1.75;0.70;;;30.90;91.80;;;;;;1913868;73;21188;-79
2022/07/09 04:22:10;;;;;;;2.17;0.90;;;30.90;91.30;;;;;;1921141;73;21186;-80
2022/07/09 04:24:41;;;;;;;3.10;0.68;;;31.00;91.20;;;;;;1923068;73;21103;-79
2022/07/09 04:27:16;;;;;;;1.47;0.72;;;31.10;90.70;;;;;;1918184;73;21615;-79
2022/07/09 04:29:44;;;;;;;1.50;0.70;;;31.10;90.30;;;;;;1917214;73;21072;-79
2022/07/09 04:32:15;;;;;;;3.08;0.80;;;31.10;91.00;;;;;;1917876;73;21107;-78
2022/07/09 04:34:46;;;;;;;2.83;0.93;;;30.90;91.00;;;;;;1912864;73;21108;-79
2022/07/09 04:37:17;;;;;;;2.75;1.05;;;30.90;91.20;;;;;;1931146;73;21065;-80
2022/07/09 04:39:48;;;;;;;2.70;0.98;;;30.90;91.10;;;;;;1913562;73;21185;-80
2022/07/09 04:42:20;;;;;;;4.03;0.90;;;31.00;91.50;;;;;;1916475;73;21127;-79
2022/07/09 04:44:51;;;;;;;2.50;0.57;;;31.20;91.00;;;;;;1925329;73;21108;-79
2022/07/09 04:47:24;;;;;;;4.58;0.90;;;31.30;90.60;;;;;;1914102;73;21712;-79
2022/07/09 04:49:56;;;;;;;1.50;0.60;;;31.40;90.50;;;;;;1910578;73;21084;-79
2022/07/09 04:52:28;;;;;;;2.33;0.60;;;31.50;90.00;;;;;;1911918;73;21076;-81
2022/07/09 04:54:59;;;;;;;3.05;0.85;;;31.50;89.80;;;;;;1914777;73;21149;-79
2022/07/09 04:57:30;;;;;;;4.72;1.50;;;31.50;90.50;;;;;;1905404;73;21197;-79
2022/07/09 05:00:02;;;;;;;4.25;0.80;;;31.50;90.40;;;;;;1920710;73;21162;-79
2022/07/09 05:02:33;;;;;;;4.58;0.90;;;31.40;90.30;;;;;;1896273;74;21614;-80
2022/07/09 05:05:06;;;;;;;3.25;1.15;;;31.40;90.00;;;;;;1891772;74;21157;-79
2022/07/09 05:07:37;;;;;;;2.10;0.95;;;31.30;90.30;;;;;;1943807;73;21155;-80
2022/07/09 05:10:09;;;;;;;2.17;0.80;;;31.20;90.40;;;;;;1912990;74;21155;-80
2022/07/09 05:12:40;;;;;;;3.50;1.10;;;31.20;90.70;;;;;;1911234;73;21249;-80
2022/07/09 05:15:14;;;;;;;2.08;0.95;;;31.10;90.80;;;;;;1939982;73;21702;-80
2022/07/09 05:17:45;;;;;;;2.90;1.00;;;31.10;90.80;;;;;;1913184;73;21236;-80
2022/07/09 05:20:16;;;;;;;2.37;1.10;;;31.20;90.80;;;;;;1877944;75;21128;-80
2022/07/09 05:22:48;;;;;;;4.28;1.40;;;31.10;90.70;;;;;;1902821;74;21122;-80
2022/07/09 05:25:19;;;;;;;3.10;0.70;;;31.10;90.90;;;;;;1921334;73;21144;-80
2022/07/09 05:27:50;;;;;;;3.35;0.82;;;31.10;90.60;;;;;;1920152;73;21244;-79
2022/07/09 05:30:21;;;;;;;2.15;0.80;;;31.10;90.80;;;;;;1918940;73;21183;-81
2022/07/09 05:32:52;;;;;;;1.90;0.70;;;31.00;90.40;;;;;;1914746;73;21112;-79
2022/07/09 05:35:24;;;;;;;3.02;0.70;;;30.90;90.30;;;;;;1916392;73;21147;-79
2022/07/09 05:37:55;;;;;;;2.12;0.65;;;30.80;90.40;;;;;;1941217;73;21131;-80
2022/07/09 05:40:26;;;;;;;1.90;0.78;;;30.70;90.90;;;;;;1923759;73;21164;-79
2022/07/09 05:42:57;;;;;;;1.45;0.75;;;30.70;91.20;;;;;;1908096;73;21093;-79
2022/07/09 05:45:28;;;;;;;4.15;1.22;;;30.90;90.50;;;;;;1925702;73;21046;-80
2022/07/09 05:48:02;;;;;;;1.67;0.75;;;31.10;90.60;;;;;;1932785;73;21147;-79
2022/07/09 05:50:33;;;;;;;1.87;0.80;;;31.30;90.40;;;;;;1920145;73;21131;-79
2022/07/09 05:53:07;;;;;;;2.92;1.10;;;31.40;90.30;;;;;;1919468;73;21072;-78
2022/07/09 05:55:38;;;;;;;5.03;1.47;;;31.40;91.00;;;;;;1921601;73;21213;-79
2022/07/09 05:58:11;;;;;;;4.60;1.60;;;31.40;91.10;;;;;;1909524;73;21205;-79
2022/07/09 06:00:42;;;;;;;2.15;1.10;;;31.30;91.30;;;;;;1917782;73;21139;-80
2022/07/09 06:03:13;;;;;;;3.85;1.95;;;31.20;91.10;;;;;;1913197;73;21155;-79
2022/07/09 06:05:45;;;;;;;4.00;1.20;;;31.20;91.40;;;;;;1913209;73;21526;-78
2022/07/09 06:08:16;;;;;;;4.15;1.00;;;31.10;91.50;;;;;;1916445;73;21213;-79
2022/07/09 06:10:48;;;;;;;2.90;1.10;;;31.10;91.50;;;;;;1930501;73;21618;-79
2022/07/09 06:13:20;;;;;;;2.30;1.40;;;31.10;91.40;;;;;;1913818;74;21565;-79
2022/07/09 06:15:52;;;;;;;5.20;1.35;;;31.10;91.40;;;;;;1913431;73;21556;-79
2022/07/09 06:18:23;;;;;;;2.40;1.20;;;31.10;91.70;;;;;;1913637;74;21139;-78
2022/07/09 06:20:54;;;;;;;2.50;1.00;;;31.00;91.60;;;;;;1913133;74;21147;-78
2022/07/09 06:23:25;;;;;;;3.50;1.60;;;31.00;91.60;;;;;;1914386;73;21175;-79
2022/07/09 06:25:56;;;;;;;5.45;1.22;;;31.00;91.80;;;;;;1931188;73;21057;-81
2022/07/09 06:28:29;;;;;;;2.80;1.20;;;31.00;91.70;;;;;;1935154;73;21294;-78
2022/07/09 06:31:04;;;;;;;3.55;0.90;;;31.00;91.90;;;;;;1920192;73;21174;-78
2022/07/09 06:33:35;;;;;;;3.00;1.05;;;30.90;92.00;;;;;;1962298;72;21052;-79
2022/07/09 06:36:07;;;;;;;2.45;1.15;;;30.90;91.80;;;;;;1954962;72;21134;-79
2022/07/09 06:39:44;;;;;;;3.62;1.25;;;30.80;91.80;;;;;;1966998;72;21120;-79
2022/07/09 06:41:13;;;;;;;4.55;1.10;;;30.80;91.80;;;;;;1959604;72;21077;-78
2022/07/09 06:43:46;;;;;;;2.95;1.20;;;30.80;91.90;;;;;;1974975;72;21073;-77
2022/07/09 06:46:18;;;;;;;3.08;0.88;;;30.70;91.90;;;;;;1965761;72;21108;-79
2022/07/09 06:48:50;;;;;;;2.90;1.00;;;30.70;91.70;;;;;;1953128;72;21595;-79
2022/07/09 06:51:22;;;;;;;3.33;1.30;;;30.70;91.70;;;;;;1953010;72;21594;-79
2022/07/09 06:53:53;;;;;;;3.27;1.20;;;30.80;91.40;;;;;;1971635;72;21139;-79
2022/07/09 06:56:24;;;;;;;3.05;1.10;;;30.90;91.20;;;;;;1968624;72;21212;-79
2022/07/09 06:58:55;;;;;;;3.08;1.17;;;31.00;91.20;;;;;;1960635;72;21819;-80
2022/07/09 07:01:26;;;;;;;3.47;0.93;;;31.00;90.90;;;;;;1971975;72;21116;-79
2022/07/09 07:03:58;;;;;;;1.65;0.80;;;31.00;90.60;;;;;;1948465;72;21088;-80
2022/07/09 07:06:30;;;;;;;4.55;1.10;;;31.10;90.90;;;;;;1967474;72;21647;-80
2022/07/09 07:09:02;;;;;;;2.98;1.10;;;31.20;91.10;;;;;;1947076;72;21127;-79
2022/07/09 07:11:33;;;;;;;2.17;0.93;;;31.20;90.70;;;;;;1962646;72;21195;-79
2022/07/09 07:14:07;;;;;;;2.05;1.00;;;31.30;90.80;;;;;;1973766;72;21120;-79
2022/07/09 07:16:37;;;;;;;2.85;1.25;;;31.40;91.00;;;;;;1965327;72;21060;-79
2022/07/09 07:19:10;;;;;;;2.12;1.07;;;31.40;90.40;;;;;;1965318;72;21544;-79
2022/07/09 07:21:41;;;;;;;2.77;0.93;;;31.40;90.20;;;;;;1957378;72;21148;-80
2022/07/09 07:24:13;;;;;;;4.08;1.40;;;31.40;90.50;;;;;;1953455;72;21164;-79
2022/07/09 07:26:44;;;;;;;4.53;1.20;;;31.30;90.30;;;;;;1960742;72;21544;-79
2022/07/09 07:29:16;;;;;;;2.15;0.98;;;31.30;90.20;;;;;;1977124;72;21565;-78
2022/07/09 07:31:49;;;;;;;1.62;0.78;;;31.30;90.00;;;;;;1965198;72;21088;-78
2022/07/09 07:34:23;;;;;;;2.95;1.20;;;31.20;89.80;;;;;;1948137;73;21076;-80
2022/07/09 07:36:54;;;;;;;3.65;1.45;;;31.20;90.20;;;;;;1944849;71;21107;-78
2022/07/09 07:39:26;;;;;;;1.65;0.70;;;31.10;89.60;;;;;;1923238;73;21208;-80
2022/07/09 07:42:00;;;;;;;3.83;1.00;;;31.10;90.10;;;;;;1914884;74;21682;-81
2022/07/09 07:44:34;;;;;;;2.02;1.02;;;31.10;90.50;;;;;;1914746;74;21211;-79
2022/07/09 07:47:08;;;;;;;4.00;1.00;;;31.10;90.20;;;;;;1917380;74;21198;-80
2022/07/09 07:49:39;;;;;;;2.58;1.50;;;31.10;90.40;;;;;;1920414;72;21160;-80
2022/07/09 07:52:10;;;;;;;3.75;1.15;;;31.30;90.70;;;;;;1914794;74;21131;-80
2022/07/09 07:54:41;;;;;;;5.30;1.35;;;31.40;90.60;;;;;;1918048;72;21146;-82
2022/07/09 07:57:17;;;;;;;3.65;1.30;;;31.40;90.40;;;;;;1861978;74;21684;-80
2022/07/09 07:59:50;;;;;;;4.12;1.50;;;31.40;90.20;;;;;;1866446;75;21651;-80
2022/07/09 08:02:21;;;;;;;5.85;2.20;;;31.40;90.50;;;;;;1907009;75;21143;-80
2022/07/09 08:04:53;;;;;;;3.05;1.60;;;31.40;90.70;;;;;;1904840;75;21175;-80
2022/07/09 08:07:25;;;;;;;3.25;1.25;;;31.30;90.80;;;;;;1845203;75;21213;-79
2022/07/09 08:09:56;;;;;;;3.37;1.60;;;31.20;90.60;;;;;;1872553;75;21888;-79
2022/07/09 08:12:29;;;;;;;3.08;1.30;;;31.20;91.00;;;;;;1909519;73;21195;-79
2022/07/09 08:15:00;;;;;;;4.83;1.67;;;31.20;91.00;;;;;;1922292;73;21990;-80
2022/07/09 08:17:34;;;;;;;7.95;1.67;;;31.10;91.00;;;;;;1899730;73;21077;-81
2022/07/09 08:20:07;;;;;;;3.77;1.30;;;31.10;91.10;;;;;;1924114;73;21571;-80
2022/07/09 08:22:38;;;;;;;9.15;6.12;;;30.90;91.40;;;;;;1930897;73;21117;-80
2022/07/09 08:25:09;;;;;;;4.67;2.85;;;30.70;92.00;;;;;;1929480;73;21119;-80
2022/07/09 08:27:42;;;;;;;20.17;11.93;;;30.50;92.50;;;;;;1929568;72;21707;-79
2022/07/09 08:30:17;;;;;;;10.48;5.53;;;30.30;93.00;;;;;;1931130;72;21544;-79
2022/07/09 08:32:49;;;;;;;3.52;1.57;;;30.00;93.50;;;;;;1910157;74;21175;-81
2022/07/09 08:35:19;;;;;;;11.57;4.83;;;29.80;93.80;;;;;;1915439;73;21147;-80
2022/07/09 08:37:50;;;;;;;6.70;2.02;;;29.50;94.40;;;;;;1915711;73;21080;-80
2022/07/09 08:40:23;;;;;;;5.50;1.07;;;29.20;94.70;;;;;;1933259;73;21159;-80
2022/07/09 08:42:55;;;;;;;5.97;3.37;;;28.80;95.00;;;;;;1920400;74;21253;-80
2022/07/09 08:45:27;;;;;;;7.28;3.58;;;28.40;95.60;;;;;;1937356;73;21108;-83
2022/07/09 08:48:02;;;;;;;5.00;2.10;;;28.20;96.80;;;;;;1902790;75;21606;-80
2022/07/09 08:50:33;;;;;;;6.35;1.87;;;28.00;97.20;;;;;;1930689;73;21191;-81
2022/07/09 08:53:05;;;;;;;12.45;4.17;;;27.80;97.20;;;;;;1929050;73;21303;-81
2022/07/09 08:55:39;;;;;;;9.93;2.65;;;27.70;98.00;;;;;;1908228;75;21226;-81
2022/07/09 08:58:13;;;;;;;8.35;2.40;;;27.60;98.10;;;;;;1904732;75;21176;-81
2022/07/09 09:00:44;;;;;;;16.25;8.93;;;27.50;98.40;;;;;;1907738;75;21613;-81
2022/07/09 09:03:15;;;;;;;9.40;4.40;;;27.30;98.90;;;;;;1908008;74;21187;-79
2022/07/09 09:05:48;;;;;;;7.55;2.12;;;27.30;98.80;;;;;;1934865;73;21668;-80
2022/07/09 09:08:23;;;;;;;10.32;2.45;;;27.00;99.30;;;;;;1912065;73;21142;-79
2022/07/09 09:10:55;;;;;;;5.15;1.60;;;26.70;99.50;;;;;;1909764;73;21496;-80
2022/07/09 09:13:26;;;;;;;9.40;2.95;;;26.60;99.90;;;;;;1929551;73;21060;-80
2022/07/09 09:15:59;;;;;;;7.53;1.70;;;26.40;99.90;;;;;;1901834;73;21159;-81
2022/07/09 09:18:30;;;;;;;4.83;1.72;;;26.30;99.90;;;;;;1912406;74;21201;-80
2022/07/09 09:21:05;;;;;;;3.98;1.00;;;26.20;99.90;;;;;;1919146;73;22301;-81
2022/07/09 09:23:38;;;;;;;4.80;1.22;;;26.30;99.90;;;;;;1931736;73;21181;-81
2022/07/09 09:26:12;;;;;;;4.35;0.82;;;26.30;99.90;;;;;;1937748;72;21131;-80
2022/07/09 09:28:50;;;;;;;5.30;0.90;;;26.30;99.90;;;;;;1914500;73;21790;-80
2022/07/09 09:31:20;;;;;;;3.65;0.80;;;26.20;99.90;;;;;;1884304;75;21129;-80
2022/07/09 09:33:53;;;;;;;3.62;0.95;;;26.20;99.90;;;;;;1894299;75;21108;-81
2022/07/09 09:36:30;;;;;;;2.12;0.72;;;26.20;99.90;;;;;;1900833;75;21090;-80
2022/07/09 09:39:05;;;;;;;2.35;0.93;;;26.30;99.90;;;;;;1934833;73;21122;-81
2022/07/09 09:41:38;;;;;;;3.17;0.88;;;26.30;99.90;;;;;;1883304;75;21140;-79
2022/07/09 09:44:10;;;;;;;3.75;0.78;;;26.40;99.90;;;;;;1957691;72;21174;-80
2022/07/09 09:46:43;;;;;;;3.40;0.75;;;26.40;99.90;;;;;;1928182;73;21590;-79
2022/07/09 09:49:16;;;;;;;3.00;0.75;;;26.40;99.90;;;;;;1910095;73;21179;-80
2022/07/09 09:51:49;;;;;;;4.45;1.22;;;26.50;99.90;;;;;;1882074;74;21225;-79
2022/07/09 09:54:21;;;;;;;3.58;1.52;;;26.50;99.90;;;;;;1918235;73;21127;-79
2022/07/09 09:56:53;;;;;;;5.35;1.70;;;26.60;99.90;;;;;;1906315;73;21608;-80
2022/07/09 09:59:24;;;;;;;6.12;3.05;;;26.60;99.90;;;;;;1918116;73;21153;-81
2022/07/09 10:01:55;;;;;;;5.10;2.60;;;26.60;99.90;;;;;;1955742;73;21065;-81
2022/07/09 10:04:28;;;;;;;8.45;2.77;;;26.60;99.90;;;;;;1919615;73;21628;-80
2022/07/09 10:07:02;;;;;;;4.58;1.40;;;26.60;99.90;;;;;;1884894;75;21242;-80
2022/07/09 10:09:33;;;;;;;3.65;1.30;;;26.50;99.90;;;;;;1935290;73;21081;-80
2022/07/09 10:12:05;;;;;;;4.12;1.17;;;26.50;99.90;;;;;;1926880;73;21230;-79
2022/07/09 10:14:37;;;;;;;4.50;1.00;;;26.50;99.90;;;;;;1922821;73;21203;-80
2022/07/09 10:17:11;;;;;;;2.85;0.90;;;26.50;99.90;;;;;;1931783;73;21088;-81
2022/07/09 10:19:44;;;;;;;3.58;1.30;;;26.40;99.90;;;;;;1939820;73;21072;-81
2022/07/09 10:22:15;;;;;;;5.40;1.77;;;26.50;99.90;;;;;;1922556;73;21178;-80
2022/07/09 10:24:49;;;;;;;4.12;1.67;;;26.50;99.90;;;;;;1873305;75;21153;-81
2022/07/09 10:27:20;;;;;;;5.58;1.32;;;26.50;99.90;;;;;;1958174;72;21630;-79
2022/07/09 10:29:53;;;;;;;2.70;1.15;;;26.50;99.90;;;;;;1884653;75;21232;-80
2022/07/09 10:32:27;;;;;;;3.77;1.10;;;26.60;99.90;;;;;;1927905;73;21162;-81
2022/07/09 10:35:00;;;;;;;3.35;1.10;;;26.60;99.90;;;;;;1949408;73;21132;-80
2022/07/09 10:37:34;;;;;;;2.83;1.07;;;26.50;99.90;;;;;;1934152;73;21128;-81
2022/07/09 10:40:07;;;;;;;5.37;1.27;;;26.50;99.90;;;;;;1905267;75;21272;-79
2022/07/09 10:42:40;;;;;;;2.55;1.10;;;26.60;99.90;;;;;;1907028;74;21126;-79
2022/07/09 10:45:14;;;;;;;4.35;1.30;;;26.60;99.90;;;;;;1883947;75;21161;-79
2022/07/09 10:47:47;;;;;;;2.92;1.35;;;26.60;99.90;;;;;;1907862;75;21151;-80
2022/07/09 10:50:17;;;;;;;3.75;1.77;;;26.60;99.90;;;;;;1910532;75;21177;-80
2022/07/09 10:52:49;;;;;;;8.85;5.45;;;26.60;99.90;;;;;;1910654;75;21132;-78
2022/07/09 10:55:22;;;;;;;7.33;3.22;;;26.60;99.90;;;;;;1911584;75;21095;-78
2022/07/09 10:57:53;;;;;;;4.40;2.10;;;26.60;99.90;;;;;;1912123;75;21162;-79
2022/07/09 11:00:27;;;;;;;3.40;1.50;;;26.60;99.90;;;;;;1912163;75;21163;-79
2022/07/09 11:03:02;;;;;;;4.40;1.50;;;26.60;99.90;;;;;;1911788;73;21615;-79
2022/07/09 11:05:35;;;;;;;3.47;1.32;;;26.60;99.90;;;;;;1912307;75;21153;-79
2022/07/09 11:08:08;;;;;;;3.35;1.20;;;26.50;99.90;;;;;;1912121;75;21214;-79
2022/07/09 11:10:40;;;;;;;4.45;2.20;;;26.50;99.90;;;;;;1912244;75;21528;-79
2022/07/09 11:13:12;;;;;;;2.77;1.57;;;26.50;99.90;;;;;;1910696;74;21535;-79
2022/07/09 11:15:43;;;;;;;6.30;2.33;;;26.60;99.90;;;;;;1911975;73;21174;-79
2022/07/09 11:18:15;;;;;;;5.08;1.70;;;26.50;99.90;;;;;;1912197;75;21084;-79
2022/07/09 11:20:47;;;;;;;3.37;1.27;;;26.60;99.90;;;;;;1912082;74;21195;-80
2022/07/09 11:23:18;;;;;;;4.55;1.65;;;26.60;99.90;;;;;;1912091;75;21118;-79
2022/07/09 11:25:49;;;;;;;3.80;1.25;;;26.60;99.90;;;;;;1911910;74;21183;-78
2022/07/09 11:28:23;;;;;;;9.08;3.77;;;26.60;99.90;;;;;;1911839;75;21123;-79
2022/07/09 11:31:12;;;;;;;3.17;1.90;;;26.60;99.90;;;;;;1911964;75;21590;-79
2022/07/09 11:36:15;;;;;;;6.17;2.62;;;26.60;99.90;;;;;;1908120;74;21171;-79
2022/07/09 11:38:49;;;;;;;5.47;1.60;;;26.60;99.90;;;;;;1908551;75;21131;-79
2022/07/09 11:41:20;;;;;;;4.50;1.80;;;26.60;99.90;;;;;;1908760;75;21124;-79
2022/07/09 11:43:52;;;;;;;3.87;2.25;;;26.60;99.90;;;;;;1908564;75;21135;-79
2022/07/09 11:46:23;;;;;;;5.75;1.50;;;26.60;99.90;;;;;;1908657;75;21140;-78
2022/07/09 11:48:56;;;;;;;5.87;1.95;;;26.70;99.90;;;;;;1908666;75;21540;-79
2022/07/09 11:51:29;;;;;;;6.87;1.98;;;26.70;99.90;;;;;;1908571;74;21072;-79
2022/07/09 11:54:28;;;;;;;2.92;1.67;;;26.70;99.90;;;;;;1915969;75;21140;-79
2022/07/09 11:56:59;;;;;;;4.83;1.40;;;26.70;99.90;;;;;;1916403;75;21147;-78
2022/07/09 11:59:31;;;;;;;4.35;1.32;;;26.60;99.90;;;;;;1915983;75;21081;-79
2022/07/09 12:02:03;;;;;;;6.67;1.40;;;26.60;99.90;;;;;;1915852;75;21454;-80
2022/07/09 12:04:34;;;;;;;3.62;1.40;;;26.60;99.90;;;;;;1916029;75;21136;-78
2022/07/09 12:07:07;;;;;;;3.62;1.40;;;26.60;99.90;;;;;;1916127;74;21140;-78
2022/07/09 12:09:41;;;;;;;4.53;1.50;;;26.60;99.90;;;;;;1923515;73;21642;-79
2022/07/09 12:12:12;;;;;;;3.62;1.57;;;26.60;99.90;;;;;;1945478;72;21183;-79
2022/07/09 12:14:43;;;;;;;3.77;1.40;;;26.60;99.90;;;;;;1961703;72;21140;-80
2022/07/09 12:17:17;;;;;;;5.83;1.90;;;26.60;99.90;;;;;;1955832;72;21172;-79
2022/07/09 12:19:48;;;;;;;2.52;1.40;;;26.60;99.90;;;;;;1958171;72;21608;-79
2022/07/09 12:22:20;;;;;;;4.45;1.90;;;26.60;99.90;;;;;;1966054;72;21221;-79
2022/07/09 12:24:51;;;;;;;5.28;1.70;;;26.60;99.90;;;;;;1961610;72;21112;-78
2022/07/09 12:27:22;;;;;;;6.40;2.33;;;26.60;99.90;;;;;;1966540;72;21088;-78
2022/07/09 12:29:53;;;;;;;4.90;2.52;;;26.60;99.90;;;;;;1964171;72;21183;-78
2022/07/09 12:32:24;;;;;;;4.37;2.50;;;26.60;99.90;;;;;;1960631;72;21124;-79
2022/07/09 12:34:55;;;;;;;7.67;3.30;;;26.60;99.90;;;;;;1965592;72;21150;-78
2022/07/09 12:37:26;;;;;;;8.40;4.12;;;26.60;99.90;;;;;;1979946;72;21632;-78
2022/07/09 12:39:59;;;;;;;6.72;2.27;;;26.60;99.90;;;;;;1969150;72;21119;-79
2022/07/09 12:42:32;;;;;;;6.83;2.67;;;26.60;99.90;;;;;;1940335;72;21552;-80
2022/07/09 12:45:03;;;;;;;5.53;2.30;;;26.50;99.90;;;;;;1973367;72;21181;-78
2022/07/09 12:47:39;;;;;;;5.08;2.02;;;26.60;99.90;;;;;;1969174;72;21044;-78
2022/07/09 12:50:11;;;;;;;8.50;3.27;;;26.60;99.90;;;;;;1965417;72;21130;-79
2022/07/09 12:52:43;;;;;;;5.67;2.85;;;26.60;99.90;;;;;;1958036;72;21772;-79
2022/07/09 12:55:16;;;;;;;8.43;2.62;;;26.60;99.90;;;;;;1971628;72;21115;-77
2022/07/09 12:57:48;;;;;;;4.45;2.30;;;26.50;99.90;;;;;;1960727;72;21216;-79
2022/07/09 13:00:22;;;;;;;7.42;2.67;;;26.50;99.90;;;;;;1912558;72;21124;-79
2022/07/09 13:02:56;;;;;;;5.35;2.62;;;26.50;99.90;;;;;;1971819;72;21155;-80
2022/07/09 13:05:24;;;;;;;4.40;2.30;;;26.50;99.90;;;;;;1972873;72;21081;-82
2022/07/09 13:07:55;;;;;;;4.12;2.20;;;26.40;99.90;;;;;;1966843;72;21596;-78
2022/07/09 13:10:30;;;;;;;5.83;1.82;;;26.30;99.90;;;;;;1951399;72;21603;-79
2022/07/09 13:13:01;;;;;;;5.97;2.20;;;26.30;99.90;;;;;;1926825;72;21167;-79
2022/07/09 13:15:35;;;;;;;8.10;3.10;;;26.30;99.90;;;;;;1913099;73;21677;-77